Terminal Aerodrome Forecast
Issued by NWS Mobile, AL

Home | Current Version | Previous Version | Text Only | Print | Product List | Glossary On
Versions: 1 2 3 4 5 6 7 8 9 10 11 12 13 14 15 16 17 18 19 20 21 22
000
FTUS44 KMOB 212320
TAFPNS
TAF
KPNS 212320Z 2200/2224 10009KT P6SM -RA BKN005 BKN040 OVC100
     FM220600 33002KT 4SM BR VCSH OVC007
      TEMPO 2208/2212 2SM -DZ BR OVC005
     FM221600 35007KT P6SM BKN010
     FM221900 36007KT P6SM SCT019=

USA.gov is the U.S. government's official web portal to all federal, state and local government web resources and services.